Maury City, Tennessee
Current Conditions -  °F | °C
As of 6:55 AM on Sunday 21 Dec 2014 (Local Time) from KDYR Reporting Station
Clear Clear  
Wind Chill: 21°   Ceiling: Unl
Heat Index: 28°   Visibility: 8mi
Dew Point: 16°   Wind: 7mph
Humidity: 59%   Direction: 60°ENE
Pressure: 30.25"   Gusts: NA
Location:  35.81°N, 89.23°W
Report Text: KDYR 211255Z 06006KT 8SM CLR M02/M09 A3025 RMK AO1
Loading
Personal Weather Stations






























Interactive Weather Map New forecast layout! Learn more

10-Day Weather Forecast

Advertisements
Track Severe Weather on mobile